Terr Demajagua 2, Puerto Rico
Current Conditions -  °F | °C
As of 10:53 AM on Monday 24 Nov 2014 (Local Time) from TJNR Reporting Station
Light Rain Light Rain  
Wind Chill: 79°   Ceiling: 4800
Heat Index: 82°   Visibility: 5mi
Dew Point: 72°   Wind: 8mph
Humidity: 79%   Direction: 80°E
Pressure: 30.09"   Gusts: 22mph
Location:  18.3304°N, 65.6573°W
Report Text: TJNR 241453Z AUTO 08007G19KT 5SM -RA FEW030 BKN048 OVC055 26/22 A3009 RMK AO2 RAB47 SLP190 P0000 60000 T02610222 50008 $
Loading
Personal Weather Stations






























Interactive Weather Map New forecast layout! Learn more

10-Day Weather Forecast

Advertisements
Track Severe Weather on mobile